createdAt,value
2023-02-22T00:00:00.000Z,6.89
2023-02-22T00:15:00.000Z,6.31
2023-02-22T00:30:00.000Z,5.39
2023-02-22T00:45:00.000Z,6.22
2023-02-22T01:00:00.000Z,7.26
2023-02-22T01:15:00.000Z,6.95
2023-02-22T01:30:00.000Z,7.79
2023-02-22T01:45:00.000Z,8.29
2023-02-22T02:00:00.000Z,8.86
2023-02-22T02:15:00.000Z,9.78
2023-02-22T02:30:00.000Z,9.73
2023-02-22T02:45:00.000Z,9.61
2023-02-22T03:00:00.000Z,9.12
2023-02-22T03:15:00.000Z,13.21
2023-02-22T03:30:00.000Z,17.26
2023-02-22T03:45:00.000Z,15.41
2023-02-22T04:00:00.000Z,7.88
2023-02-22T04:15:00.000Z,7.28
2023-02-22T04:30:00.000Z,7.79
2023-02-22T04:45:00.000Z,8.31
2023-02-22T05:00:00.000Z,8.31
2023-02-22T05:15:00.000Z,10.49
2023-02-22T05:30:00.000Z,11.47
2023-02-22T05:45:00.000Z,13.53
2023-02-22T06:00:00.000Z,29.15
2023-02-22T06:15:00.000Z,19.6
2023-02-22T06:30:00.000Z,16.81
2023-02-22T06:45:00.000Z,21.93
2023-02-22T07:00:00.000Z,12.52
2023-02-22T07:15:00.000Z,12.95
2023-02-22T07:30:00.000Z,12.65
2023-02-22T07:45:00.000Z,10.32
2023-02-22T08:00:00.000Z,11.24
2023-02-22T08:15:00.000Z,8.21
2023-02-22T08:30:00.000Z,6.74
2023-02-22T08:45:00.000Z,5.67
2023-02-22T09:00:00.000Z,6.14
2023-02-22T09:15:00.000Z,5.96
2023-02-22T09:30:00.000Z,5.2
2023-02-22T09:45:00.000Z,4.38
2023-02-22T10:00:00.000Z,4.2
2023-02-22T10:15:00.000Z,4.31
2023-02-22T10:30:00.000Z,6.02
2023-02-22T10:45:00.000Z,4.42
2023-02-22T11:00:00.000Z,8.2
2023-02-22T11:15:00.000Z,5.99
2023-02-22T11:30:00.000Z,5.92
2023-02-22T11:45:00.000Z,4.93
2023-02-22T12:00:00.000Z,9.42
2023-02-22T12:15:00.000Z,7.41
2023-02-22T12:30:00.000Z,10.16
2023-02-22T12:45:00.000Z,11.27
2023-02-22T13:00:00.000Z,10.12
2023-02-22T13:15:00.000Z,9.93
2023-02-22T13:30:00.000Z,7.46
2023-02-22T13:45:00.000Z,8.55
2023-02-22T14:00:00.000Z,7.65
2023-02-22T14:15:00.000Z,7.89
2023-02-22T14:30:00.000Z,6.2
2023-02-22T14:45:00.000Z,4.36
2023-02-22T15:00:00.000Z,4.26
2023-02-22T15:15:00.000Z,4.58
2023-02-22T15:30:00.000Z,5.72
2023-02-22T15:45:00.000Z,7.43
2023-02-22T16:00:00.000Z,7.39
2023-02-22T16:15:00.000Z,7.48
2023-02-22T16:30:00.000Z,8.52
2023-02-22T16:45:00.000Z,9.54
2023-02-22T17:00:00.000Z,10.81
2023-02-22T17:15:00.000Z,10.27
2023-02-22T17:30:00.000Z,12.88
2023-02-22T17:45:00.000Z,17.43
2023-02-22T18:00:00.000Z,20.06
2023-02-22T18:15:00.000Z,22.82
2023-02-22T18:30:00.000Z,22.87
2023-02-22T18:45:00.000Z,20.48
2023-02-22T19:00:00.000Z,22.19
2023-02-22T19:15:00.000Z,22.18
2023-02-22T19:30:00.000Z,22.24
2023-02-22T19:45:00.000Z,19.27
2023-02-22T20:00:00.000Z,16.49
2023-02-22T20:15:00.000Z,20.59
2023-02-22T20:30:00.000Z,21.79
2023-02-22T20:45:00.000Z,18.36
2023-02-22T21:00:00.000Z,18.29
2023-02-22T21:15:00.000Z,16.71
2023-02-22T21:30:00.000Z,15.08
2023-02-22T21:45:00.000Z,16.14
2023-02-22T22:00:00.000Z,16.66
2023-02-22T22:15:00.000Z,14.72
2023-02-22T22:30:00.000Z,13.28
2023-02-22T22:45:00.000Z,12.11
2023-02-22T23:00:00.000Z,10.41
2023-02-22T23:15:00.000Z,14.31
2023-02-22T23:30:00.000Z,15.87
2023-02-22T23:45:00.000Z,16.13
